﻿<?xml version="1.0" encoding="UTF-8"?>
<gpx xmlns="http://www.topografix.com/GPX/1/1" creator="ape@map" version="1.1" xmlns:xsi="http://www.w3.org/2001/XMLSchema-instance" xmlns:dklgpx="http://na.na.na/GPX/1/1" xsi:schemaLocation="http://www.topografix.com/GPX/1/1 http://www.topografix.com/GPX/1/1/gpx.xsd">
<metadata>
   <name>ape@map my Phone my Guide</name>
</metadata>
<trk>
   <name>2024-06-04_KW-Steinau_Südroute_8,47km</name>
   <trkseg>
      <trkpt lon="9.4845466614" lat="50.293888092">
          <ele>356</ele>
          <time>2024-06-04T14:15:26Z</time>
      </trkpt>
      <trkpt lon="9.4845781326" lat="50.2936973572">
          <ele>356</ele>
          <time>2024-06-04T14:16:00Z</time>
      </trkpt>
      <trkpt lon="9.4847297668" lat="50.2935218811">
          <ele>356</ele>
          <time>2024-06-04T14:16:19Z</time>
      </trkpt>
      <trkpt lon="9.4849262238" lat="50.2933654785">
          <ele>358</ele>
          <time>2024-06-04T14:16:34Z</time>
      </trkpt>
      <trkpt lon="9.4851169586" lat="50.2932128906">
          <ele>360</ele>
          <time>2024-06-04T14:16:53Z</time>
      </trkpt>
      <trkpt lon="9.4853000641" lat="50.2930603027">
          <ele>364</ele>
          <time>2024-06-04T14:17:09Z</time>
      </trkpt>
      <trkpt lon="9.4854879379" lat="50.2929000854">
          <ele>367</ele>
          <time>2024-06-04T14:17:26Z</time>
      </trkpt>
      <trkpt lon="9.485666275" lat="50.2927436829">
          <ele>368</ele>
          <time>2024-06-04T14:17:43Z</time>
      </trkpt>
      <trkpt lon="9.485830307" lat="50.2925720215">
          <ele>370</ele>
          <time>2024-06-04T14:18:02Z</time>
      </trkpt>
      <trkpt lon="9.486035347" lat="50.292427063">
          <ele>372</ele>
          <time>2024-06-04T14:18:19Z</time>
      </trkpt>
      <trkpt lon="9.4861984253" lat="50.2922592163">
          <ele>374</ele>
          <time>2024-06-04T14:18:37Z</time>
      </trkpt>
      <trkpt lon="9.4863853455" lat="50.2921066284">
          <ele>374</ele>
          <time>2024-06-04T14:18:53Z</time>
      </trkpt>
      <trkpt lon="9.4865617752" lat="50.2919502258">
          <ele>373</ele>
          <time>2024-06-04T14:19:10Z</time>
      </trkpt>
      <trkpt lon="9.4867067337" lat="50.2917785645">
          <ele>375</ele>
          <time>2024-06-04T14:19:28Z</time>
      </trkpt>
      <trkpt lon="9.4868965149" lat="50.2916259766">
          <ele>378</ele>
          <time>2024-06-04T14:19:44Z</time>
      </trkpt>
      <trkpt lon="9.4870767593" lat="50.2914657593">
          <ele>379</ele>
          <time>2024-06-04T14:20:01Z</time>
      </trkpt>
      <trkpt lon="9.4872636795" lat="50.2913208008">
          <ele>383</ele>
          <time>2024-06-04T14:20:18Z</time>
      </trkpt>
      <trkpt lon="9.4874267578" lat="50.2911682129">
          <ele>388</ele>
          <time>2024-06-04T14:20:36Z</time>
      </trkpt>
      <trkpt lon="9.4876098633" lat="50.2910232544">
          <ele>392</ele>
          <time>2024-06-04T14:20:54Z</time>
      </trkpt>
      <trkpt lon="9.4877786636" lat="50.2908592224">
          <ele>394</ele>
          <time>2024-06-04T14:21:12Z</time>
      </trkpt>
      <trkpt lon="9.4879312515" lat="50.2906799316">
          <ele>394</ele>
          <time>2024-06-04T14:21:29Z</time>
      </trkpt>
      <trkpt lon="9.4881029129" lat="50.290512085">
          <ele>394</ele>
          <time>2024-06-04T14:21:47Z</time>
      </trkpt>
      <trkpt lon="9.488243103" lat="50.2903327942">
          <ele>393</ele>
          <time>2024-06-04T14:22:04Z</time>
      </trkpt>
      <trkpt lon="9.4883947372" lat="50.2901649475">
          <ele>391</ele>
          <time>2024-06-04T14:22:20Z</time>
      </trkpt>
      <trkpt lon="9.4885549545" lat="50.2900047302">
          <ele>391</ele>
          <time>2024-06-04T14:22:37Z</time>
      </trkpt>
      <trkpt lon="9.4884529114" lat="50.2898178101">
          <ele>389</ele>
          <time>2024-06-04T14:22:58Z</time>
      </trkpt>
      <trkpt lon="9.4883050919" lat="50.2896499634">
          <ele>390</ele>
          <time>2024-06-04T14:23:16Z</time>
      </trkpt>
      <trkpt lon="9.4881248474" lat="50.2894935608">
          <ele>389</ele>
          <time>2024-06-04T14:23:34Z</time>
      </trkpt>
      <trkpt lon="9.4879951477" lat="50.2893180847">
          <ele>386</ele>
          <time>2024-06-04T14:23:52Z</time>
      </trkpt>
      <trkpt lon="9.4878530502" lat="50.289150238">
          <ele>385</ele>
          <time>2024-06-04T14:24:09Z</time>
      </trkpt>
      <trkpt lon="9.4877548218" lat="50.2889633179">
          <ele>386</ele>
          <time>2024-06-04T14:24:27Z</time>
      </trkpt>
      <trkpt lon="9.4875936508" lat="50.2887992859">
          <ele>387</ele>
          <time>2024-06-04T14:24:45Z</time>
      </trkpt>
      <trkpt lon="9.4874353409" lat="50.2886314392">
          <ele>388</ele>
          <time>2024-06-04T14:25:05Z</time>
      </trkpt>
      <trkpt lon="9.4872999191" lat="50.2884674072">
          <ele>392</ele>
          <time>2024-06-04T14:25:24Z</time>
      </trkpt>
      <trkpt lon="9.4871520996" lat="50.2883033752">
          <ele>395</ele>
          <time>2024-06-04T14:25:46Z</time>
      </trkpt>
      <trkpt lon="9.4870233536" lat="50.2881164551">
          <ele>396</ele>
          <time>2024-06-04T14:26:10Z</time>
      </trkpt>
      <trkpt lon="9.4868650436" lat="50.2879524231">
          <ele>396</ele>
          <time>2024-06-04T14:26:31Z</time>
      </trkpt>
      <trkpt lon="9.4866733551" lat="50.2878074646">
          <ele>398</ele>
          <time>2024-06-04T14:26:52Z</time>
      </trkpt>
      <trkpt lon="9.4865732193" lat="50.2876281738">
          <ele>399</ele>
          <time>2024-06-04T14:27:09Z</time>
      </trkpt>
      <trkpt lon="9.4864587784" lat="50.2874526978">
          <ele>403</ele>
          <time>2024-06-04T14:27:33Z</time>
      </trkpt>
      <trkpt lon="9.4863986969" lat="50.2872657776">
          <ele>408</ele>
          <time>2024-06-04T14:27:57Z</time>
      </trkpt>
      <trkpt lon="9.4866466522" lat="50.2871551514">
          <ele>410</ele>
          <time>2024-06-04T14:28:17Z</time>
      </trkpt>
      <trkpt lon="9.4868879318" lat="50.2870445251">
          <ele>415</ele>
          <time>2024-06-04T14:28:41Z</time>
      </trkpt>
      <trkpt lon="9.4870815277" lat="50.286895752">
          <ele>415</ele>
          <time>2024-06-04T14:29:07Z</time>
      </trkpt>
      <trkpt lon="9.487364769" lat="50.2869720459">
          <ele>418</ele>
          <time>2024-06-04T14:29:33Z</time>
      </trkpt>
      <trkpt lon="9.4875354767" lat="50.2868232727">
          <ele>423</ele>
          <time>2024-06-04T14:30:03Z</time>
      </trkpt>
      <trkpt lon="9.4875650406" lat="50.2870140076">
          <ele>426</ele>
          <time>2024-06-04T14:31:01Z</time>
      </trkpt>
      <trkpt lon="9.4877233505" lat="50.2871818542">
          <ele>425</ele>
          <time>2024-06-04T14:31:18Z</time>
      </trkpt>
      <trkpt lon="9.488035202" lat="50.2871856689">
          <ele>423</ele>
          <time>2024-06-04T14:31:37Z</time>
      </trkpt>
      <trkpt lon="9.4883203506" lat="50.2871894836">
          <ele>417</ele>
          <time>2024-06-04T14:31:53Z</time>
      </trkpt>
      <trkpt lon="9.4886112213" lat="50.2871780396">
          <ele>413</ele>
          <time>2024-06-04T14:32:08Z</time>
      </trkpt>
      <trkpt lon="9.4888830185" lat="50.2870826721">
          <ele>409</ele>
          <time>2024-06-04T14:32:26Z</time>
      </trkpt>
      <trkpt lon="9.4891796112" lat="50.2870407104">
          <ele>407</ele>
          <time>2024-06-04T14:32:41Z</time>
      </trkpt>
      <trkpt lon="9.4894752502" lat="50.2870025635">
          <ele>408</ele>
          <time>2024-06-04T14:32:57Z</time>
      </trkpt>
      <trkpt lon="9.4897499084" lat="50.2869415283">
          <ele>412</ele>
          <time>2024-06-04T14:33:14Z</time>
      </trkpt>
      <trkpt lon="9.4900197983" lat="50.286857605">
          <ele>416</ele>
          <time>2024-06-04T14:33:29Z</time>
      </trkpt>
      <trkpt lon="9.490278244" lat="50.2867584229">
          <ele>417</ele>
          <time>2024-06-04T14:33:45Z</time>
      </trkpt>
      <trkpt lon="9.4905529022" lat="50.2866783142">
          <ele>419</ele>
          <time>2024-06-04T14:34:00Z</time>
      </trkpt>
      <trkpt lon="9.4905261993" lat="50.2864837646">
          <ele>421</ele>
          <time>2024-06-04T14:34:17Z</time>
      </trkpt>
      <trkpt lon="9.490398407" lat="50.2863006592">
          <ele>420</ele>
          <time>2024-06-04T14:34:33Z</time>
      </trkpt>
      <trkpt lon="9.4903087616" lat="50.286113739">
          <ele>418</ele>
          <time>2024-06-04T14:34:52Z</time>
      </trkpt>
      <trkpt lon="9.4902448654" lat="50.2859230042">
          <ele>417</ele>
          <time>2024-06-04T14:35:10Z</time>
      </trkpt>
      <trkpt lon="9.4901218414" lat="50.2857513428">
          <ele>419</ele>
          <time>2024-06-04T14:35:29Z</time>
      </trkpt>
      <trkpt lon="9.4900884628" lat="50.2855567932">
          <ele>420</ele>
          <time>2024-06-04T14:35:47Z</time>
      </trkpt>
      <trkpt lon="9.4900836945" lat="50.285358429">
          <ele>422</ele>
          <time>2024-06-04T14:36:04Z</time>
      </trkpt>
      <trkpt lon="9.4900169373" lat="50.2851715088">
          <ele>423</ele>
          <time>2024-06-04T14:36:22Z</time>
      </trkpt>
      <trkpt lon="9.4899435043" lat="50.2849845886">
          <ele>422</ele>
          <time>2024-06-04T14:36:41Z</time>
      </trkpt>
      <trkpt lon="9.4899616241" lat="50.2847862244">
          <ele>422</ele>
          <time>2024-06-04T14:36:59Z</time>
      </trkpt>
      <trkpt lon="9.4900379181" lat="50.2845993042">
          <ele>422</ele>
          <time>2024-06-04T14:37:13Z</time>
      </trkpt>
      <trkpt lon="9.4900798798" lat="50.2844085693">
          <ele>424</ele>
          <time>2024-06-04T14:37:31Z</time>
      </trkpt>
      <trkpt lon="9.4901762009" lat="50.2842292786">
          <ele>424</ele>
          <time>2024-06-04T14:37:46Z</time>
      </trkpt>
      <trkpt lon="9.4902496338" lat="50.2840385437">
          <ele>424</ele>
          <time>2024-06-04T14:38:05Z</time>
      </trkpt>
      <trkpt lon="9.4904146194" lat="50.2838783264">
          <ele>425</ele>
          <time>2024-06-04T14:38:23Z</time>
      </trkpt>
      <trkpt lon="9.4904813766" lat="50.2836837769">
          <ele>423</ele>
          <time>2024-06-04T14:39:38Z</time>
      </trkpt>
      <trkpt lon="9.4906148911" lat="50.2835121155">
          <ele>426</ele>
          <time>2024-06-04T14:39:55Z</time>
      </trkpt>
      <trkpt lon="9.4907770157" lat="50.2833518982">
          <ele>427</ele>
          <time>2024-06-04T14:40:12Z</time>
      </trkpt>
      <trkpt lon="9.490986824" lat="50.283203125">
          <ele>425</ele>
          <time>2024-06-04T14:40:28Z</time>
      </trkpt>
      <trkpt lon="9.4912052155" lat="50.2830696106">
          <ele>425</ele>
          <time>2024-06-04T14:40:42Z</time>
      </trkpt>
      <trkpt lon="9.4913902283" lat="50.2829170227">
          <ele>428</ele>
          <time>2024-06-04T14:40:58Z</time>
      </trkpt>
      <trkpt lon="9.4916162491" lat="50.2827835083">
          <ele>429</ele>
          <time>2024-06-04T14:41:14Z</time>
      </trkpt>
      <trkpt lon="9.4918165207" lat="50.282623291">
          <ele>429</ele>
          <time>2024-06-04T14:41:28Z</time>
      </trkpt>
      <trkpt lon="9.4920349121" lat="50.2824859619">
          <ele>430</ele>
          <time>2024-06-04T14:41:50Z</time>
      </trkpt>
      <trkpt lon="9.4922685623" lat="50.2823562622">
          <ele>430</ele>
          <time>2024-06-04T14:42:08Z</time>
      </trkpt>
      <trkpt lon="9.4924812317" lat="50.2822113037">
          <ele>430</ele>
          <time>2024-06-04T14:42:21Z</time>
      </trkpt>
      <trkpt lon="9.4926967621" lat="50.2820777893">
          <ele>429</ele>
          <time>2024-06-04T14:42:39Z</time>
      </trkpt>
      <trkpt lon="9.4928951263" lat="50.2819252014">
          <ele>428</ele>
          <time>2024-06-04T14:42:55Z</time>
      </trkpt>
      <trkpt lon="9.4931783676" lat="50.2818489075">
          <ele>430</ele>
          <time>2024-06-04T14:43:16Z</time>
      </trkpt>
      <trkpt lon="9.493432045" lat="50.2817497253">
          <ele>432</ele>
          <time>2024-06-04T14:43:34Z</time>
      </trkpt>
      <trkpt lon="9.4936952591" lat="50.2816619873">
          <ele>432</ele>
          <time>2024-06-04T14:43:48Z</time>
      </trkpt>
      <trkpt lon="9.4939651489" lat="50.281578064">
          <ele>431</ele>
          <time>2024-06-04T14:44:06Z</time>
      </trkpt>
      <trkpt lon="9.4942684174" lat="50.2815208435">
          <ele>432</ele>
          <time>2024-06-04T14:44:23Z</time>
      </trkpt>
      <trkpt lon="9.4945468903" lat="50.2814483643">
          <ele>433</ele>
          <time>2024-06-04T14:44:40Z</time>
      </trkpt>
      <trkpt lon="9.4948282242" lat="50.2813911438">
          <ele>432</ele>
          <time>2024-06-04T14:44:59Z</time>
      </trkpt>
      <trkpt lon="9.4951286316" lat="50.2813568115">
          <ele>429</ele>
          <time>2024-06-04T14:45:15Z</time>
      </trkpt>
      <trkpt lon="9.4954137802" lat="50.281288147">
          <ele>427</ele>
          <time>2024-06-04T14:45:32Z</time>
      </trkpt>
      <trkpt lon="9.4957046509" lat="50.2812423706">
          <ele>428</ele>
          <time>2024-06-04T14:45:52Z</time>
      </trkpt>
      <trkpt lon="9.4959936142" lat="50.2811889648">
          <ele>429</ele>
          <time>2024-06-04T14:46:10Z</time>
      </trkpt>
      <trkpt lon="9.49629879" lat="50.2812194824">
          <ele>429</ele>
          <time>2024-06-04T14:46:24Z</time>
      </trkpt>
      <trkpt lon="9.4965953827" lat="50.2812652588">
          <ele>427</ele>
          <time>2024-06-04T14:46:42Z</time>
      </trkpt>
      <trkpt lon="9.4968929291" lat="50.2812690735">
          <ele>428</ele>
          <time>2024-06-04T14:47:00Z</time>
      </trkpt>
      <trkpt lon="9.4971904755" lat="50.2813301086">
          <ele>428</ele>
          <time>2024-06-04T14:47:17Z</time>
      </trkpt>
      <trkpt lon="9.4974899292" lat="50.2813262939">
          <ele>428</ele>
          <time>2024-06-04T14:47:34Z</time>
      </trkpt>
      <trkpt lon="9.4977836609" lat="50.2813644409">
          <ele>427</ele>
          <time>2024-06-04T14:47:51Z</time>
      </trkpt>
      <trkpt lon="9.4980831146" lat="50.2813835144">
          <ele>426</ele>
          <time>2024-06-04T14:48:05Z</time>
      </trkpt>
      <trkpt lon="9.4983863831" lat="50.2813911438">
          <ele>425</ele>
          <time>2024-06-04T14:48:27Z</time>
      </trkpt>
      <trkpt lon="9.4986896515" lat="50.2813682556">
          <ele>426</ele>
          <time>2024-06-04T14:48:44Z</time>
      </trkpt>
      <trkpt lon="9.4989833832" lat="50.2814102173">
          <ele>428</ele>
          <time>2024-06-04T14:49:04Z</time>
      </trkpt>
      <trkpt lon="9.4992752075" lat="50.2814674377">
          <ele>427</ele>
          <time>2024-06-04T14:49:20Z</time>
      </trkpt>
      <trkpt lon="9.4995450974" lat="50.2815513611">
          <ele>425</ele>
          <time>2024-06-04T14:49:35Z</time>
      </trkpt>
      <trkpt lon="9.499830246" lat="50.2816390991">
          <ele>425</ele>
          <time>2024-06-04T14:49:53Z</time>
      </trkpt>
      <trkpt lon="9.5000553131" lat="50.2817687988">
          <ele>426</ele>
          <time>2024-06-04T14:50:07Z</time>
      </trkpt>
      <trkpt lon="9.5003070831" lat="50.2818641663">
          <ele>429</ele>
          <time>2024-06-04T14:50:26Z</time>
      </trkpt>
      <trkpt lon="9.5005435944" lat="50.2819900513">
          <ele>428</ele>
          <time>2024-06-04T14:50:44Z</time>
      </trkpt>
      <trkpt lon="9.5007915497" lat="50.2820854187">
          <ele>423</ele>
          <time>2024-06-04T14:51:01Z</time>
      </trkpt>
      <trkpt lon="9.5010099411" lat="50.2822113037">
          <ele>418</ele>
          <time>2024-06-04T14:51:18Z</time>
      </trkpt>
      <trkpt lon="9.5012865067" lat="50.2823066711">
          <ele>416</ele>
          <time>2024-06-04T14:52:52Z</time>
      </trkpt>
      <trkpt lon="9.501578331" lat="50.2823677063">
          <ele>416</ele>
          <time>2024-06-04T14:53:10Z</time>
      </trkpt>
      <trkpt lon="9.501865387" lat="50.2824211121">
          <ele>416</ele>
          <time>2024-06-04T14:53:26Z</time>
      </trkpt>
      <trkpt lon="9.502166748" lat="50.2824707031">
          <ele>417</ele>
          <time>2024-06-04T14:53:45Z</time>
      </trkpt>
      <trkpt lon="9.5024662018" lat="50.2825050354">
          <ele>420</ele>
          <time>2024-06-04T14:54:03Z</time>
      </trkpt>
      <trkpt lon="9.5027704239" lat="50.2825050354">
          <ele>422</ele>
          <time>2024-06-04T14:54:19Z</time>
      </trkpt>
      <trkpt lon="9.5030670166" lat="50.2825431824">
          <ele>421</ele>
          <time>2024-06-04T14:54:38Z</time>
      </trkpt>
      <trkpt lon="9.5033779144" lat="50.2825393677">
          <ele>419</ele>
          <time>2024-06-04T14:54:52Z</time>
      </trkpt>
      <trkpt lon="9.5036754608" lat="50.282585144">
          <ele>419</ele>
          <time>2024-06-04T14:55:08Z</time>
      </trkpt>
      <trkpt lon="9.503985405" lat="50.2826080322">
          <ele>420</ele>
          <time>2024-06-04T14:55:26Z</time>
      </trkpt>
      <trkpt lon="9.5042886734" lat="50.2826499939">
          <ele>421</ele>
          <time>2024-06-04T14:55:43Z</time>
      </trkpt>
      <trkpt lon="9.5045146942" lat="50.2827720642">
          <ele>423</ele>
          <time>2024-06-04T14:55:57Z</time>
      </trkpt>
      <trkpt lon="9.5046987534" lat="50.2829246521">
          <ele>423</ele>
          <time>2024-06-04T14:56:11Z</time>
      </trkpt>
      <trkpt lon="9.5049200058" lat="50.2827987671">
          <ele>423</ele>
          <time>2024-06-04T14:56:38Z</time>
      </trkpt>
      <trkpt lon="9.5051012039" lat="50.2826423645">
          <ele>420</ele>
          <time>2024-06-04T14:56:56Z</time>
      </trkpt>
      <trkpt lon="9.5052614212" lat="50.2824821472">
          <ele>419</ele>
          <time>2024-06-04T14:57:12Z</time>
      </trkpt>
      <trkpt lon="9.5053901672" lat="50.2823104858">
          <ele>419</ele>
          <time>2024-06-04T14:57:30Z</time>
      </trkpt>
      <trkpt lon="9.5054283142" lat="50.282119751">
          <ele>417</ele>
          <time>2024-06-04T14:57:48Z</time>
      </trkpt>
      <trkpt lon="9.5054483414" lat="50.2819328308">
          <ele>414</ele>
          <time>2024-06-04T14:58:09Z</time>
      </trkpt>
      <trkpt lon="9.5054998398" lat="50.2817382813">
          <ele>415</ele>
          <time>2024-06-04T14:58:25Z</time>
      </trkpt>
      <trkpt lon="9.5054016113" lat="50.2815589905">
          <ele>416</ele>
          <time>2024-06-04T14:58:47Z</time>
      </trkpt>
      <trkpt lon="9.5052833557" lat="50.2813835144">
          <ele>419</ele>
          <time>2024-06-04T14:59:08Z</time>
      </trkpt>
      <trkpt lon="9.5053119659" lat="50.2811965942">
          <ele>423</ele>
          <time>2024-06-04T14:59:32Z</time>
      </trkpt>
      <trkpt lon="9.5053901672" lat="50.2810020447">
          <ele>425</ele>
          <time>2024-06-04T14:59:50Z</time>
      </trkpt>
      <trkpt lon="9.5054302216" lat="50.2808151245">
          <ele>426</ele>
          <time>2024-06-04T15:00:11Z</time>
      </trkpt>
      <trkpt lon="9.5056495667" lat="50.2806739807">
          <ele>422</ele>
          <time>2024-06-04T15:00:28Z</time>
      </trkpt>
      <trkpt lon="9.5054712296" lat="50.2805175781">
          <ele>419</ele>
          <time>2024-06-04T15:01:08Z</time>
      </trkpt>
      <trkpt lon="9.5056715012" lat="50.280380249">
          <ele>416</ele>
          <time>2024-06-04T15:01:56Z</time>
      </trkpt>
      <trkpt lon="9.5055503845" lat="50.280216217">
          <ele>410</ele>
          <time>2024-06-04T15:02:58Z</time>
      </trkpt>
      <trkpt lon="9.5052518845" lat="50.2801933289">
          <ele>413</ele>
          <time>2024-06-04T15:03:40Z</time>
      </trkpt>
      <trkpt lon="9.5049695969" lat="50.2802200317">
          <ele>421</ele>
          <time>2024-06-04T15:04:02Z</time>
      </trkpt>
      <trkpt lon="9.5048513412" lat="50.2804031372">
          <ele>424</ele>
          <time>2024-06-04T15:04:20Z</time>
      </trkpt>
      <trkpt lon="9.5046730042" lat="50.2805595398">
          <ele>426</ele>
          <time>2024-06-04T15:04:49Z</time>
      </trkpt>
      <trkpt lon="9.5044717789" lat="50.2807044983">
          <ele>428</ele>
          <time>2024-06-04T15:05:13Z</time>
      </trkpt>
      <trkpt lon="9.5042486191" lat="50.2808303833">
          <ele>428</ele>
          <time>2024-06-04T15:05:34Z</time>
      </trkpt>
      <trkpt lon="9.5041046143" lat="50.28099823">
          <ele>431</ele>
          <time>2024-06-04T15:05:59Z</time>
      </trkpt>
      <trkpt lon="9.5038385391" lat="50.2810401917">
          <ele>440</ele>
          <time>2024-06-04T15:06:23Z</time>
      </trkpt>
      <trkpt lon="9.5036029816" lat="50.2809333801">
          <ele>446</ele>
          <time>2024-06-04T15:08:00Z</time>
      </trkpt>
      <trkpt lon="9.5033378601" lat="50.2810134888">
          <ele>442</ele>
          <time>2024-06-04T15:08:23Z</time>
      </trkpt>
      <trkpt lon="9.5031661987" lat="50.2811698914">
          <ele>440</ele>
          <time>2024-06-04T15:08:44Z</time>
      </trkpt>
      <trkpt lon="9.503036499" lat="50.2813415527">
          <ele>440</ele>
          <time>2024-06-04T15:09:03Z</time>
      </trkpt>
      <trkpt lon="9.5029096603" lat="50.2815246582">
          <ele>439</ele>
          <time>2024-06-04T15:09:20Z</time>
      </trkpt>
      <trkpt lon="9.5028133392" lat="50.2817077637">
          <ele>437</ele>
          <time>2024-06-04T15:09:40Z</time>
      </trkpt>
      <trkpt lon="9.5025568008" lat="50.2816009521">
          <ele>438</ele>
          <time>2024-06-04T15:09:58Z</time>
      </trkpt>
      <trkpt lon="9.5023536682" lat="50.2814559937">
          <ele>440</ele>
          <time>2024-06-04T15:10:13Z</time>
      </trkpt>
      <trkpt lon="9.5021247864" lat="50.2813148499">
          <ele>442</ele>
          <time>2024-06-04T15:10:30Z</time>
      </trkpt>
      <trkpt lon="9.5018863678" lat="50.2811965942">
          <ele>440</ele>
          <time>2024-06-04T15:10:47Z</time>
      </trkpt>
      <trkpt lon="9.5016679764" lat="50.2810668945">
          <ele>441</ele>
          <time>2024-06-04T15:11:01Z</time>
      </trkpt>
      <trkpt lon="9.5014429092" lat="50.2809257507">
          <ele>442</ele>
          <time>2024-06-04T15:11:18Z</time>
      </trkpt>
      <trkpt lon="9.5011854172" lat="50.2808303833">
          <ele>442</ele>
          <time>2024-06-04T15:11:34Z</time>
      </trkpt>
      <trkpt lon="9.5009279251" lat="50.2807350159">
          <ele>441</ele>
          <time>2024-06-04T15:11:49Z</time>
      </trkpt>
      <trkpt lon="9.5006752014" lat="50.2806243896">
          <ele>438</ele>
          <time>2024-06-04T15:12:05Z</time>
      </trkpt>
      <trkpt lon="9.5003833771" lat="50.2805595398">
          <ele>437</ele>
          <time>2024-06-04T15:12:23Z</time>
      </trkpt>
      <trkpt lon="9.5000982285" lat="50.2804870605">
          <ele>439</ele>
          <time>2024-06-04T15:12:38Z</time>
      </trkpt>
      <trkpt lon="9.4998283386" lat="50.2803916931">
          <ele>441</ele>
          <time>2024-06-04T15:12:54Z</time>
      </trkpt>
      <trkpt lon="9.4995546341" lat="50.2803153992">
          <ele>441</ele>
          <time>2024-06-04T15:13:10Z</time>
      </trkpt>
      <trkpt lon="9.4992952347" lat="50.280216217">
          <ele>442</ele>
          <time>2024-06-04T15:13:26Z</time>
      </trkpt>
      <trkpt lon="9.4990253448" lat="50.2801361084">
          <ele>442</ele>
          <time>2024-06-04T15:13:44Z</time>
      </trkpt>
      <trkpt lon="9.4987783432" lat="50.2800254822">
          <ele>438</ele>
          <time>2024-06-04T15:13:58Z</time>
      </trkpt>
      <trkpt lon="9.498506546" lat="50.2799339294">
          <ele>435</ele>
          <time>2024-06-04T15:14:14Z</time>
      </trkpt>
      <trkpt lon="9.4982728958" lat="50.279800415">
          <ele>437</ele>
          <time>2024-06-04T15:14:31Z</time>
      </trkpt>
      <trkpt lon="9.4980154037" lat="50.2797088623">
          <ele>441</ele>
          <time>2024-06-04T15:14:47Z</time>
      </trkpt>
      <trkpt lon="9.4977531433" lat="50.2796134949">
          <ele>441</ele>
          <time>2024-06-04T15:15:02Z</time>
      </trkpt>
      <trkpt lon="9.4974813461" lat="50.2795219421">
          <ele>438</ele>
          <time>2024-06-04T15:15:20Z</time>
      </trkpt>
      <trkpt lon="9.4971961975" lat="50.2794456482">
          <ele>437</ele>
          <time>2024-06-04T15:15:41Z</time>
      </trkpt>
      <trkpt lon="9.4969263077" lat="50.2793693542">
          <ele>434</ele>
          <time>2024-06-04T15:16:01Z</time>
      </trkpt>
      <trkpt lon="9.4966564178" lat="50.2792816162">
          <ele>435</ele>
          <time>2024-06-04T15:16:15Z</time>
      </trkpt>
      <trkpt lon="9.4963598251" lat="50.2792167664">
          <ele>437</ele>
          <time>2024-06-04T15:16:33Z</time>
      </trkpt>
      <trkpt lon="9.4961519241" lat="50.2790718079">
          <ele>438</ele>
          <time>2024-06-04T15:17:10Z</time>
      </trkpt>
      <trkpt lon="9.4958963394" lat="50.278968811">
          <ele>443</ele>
          <time>2024-06-04T15:17:28Z</time>
      </trkpt>
      <trkpt lon="9.4956436157" lat="50.2788734436">
          <ele>449</ele>
          <time>2024-06-04T15:18:04Z</time>
      </trkpt>
      <trkpt lon="9.4953718185" lat="50.278793335">
          <ele>452</ele>
          <time>2024-06-04T15:18:44Z</time>
      </trkpt>
      <trkpt lon="9.4951267242" lat="50.2786750793">
          <ele>448</ele>
          <time>2024-06-04T15:18:59Z</time>
      </trkpt>
      <trkpt lon="9.4948415756" lat="50.2786216736">
          <ele>444</ele>
          <time>2024-06-04T15:19:13Z</time>
      </trkpt>
      <trkpt lon="9.494600296" lat="50.2785186768">
          <ele>440</ele>
          <time>2024-06-04T15:19:37Z</time>
      </trkpt>
      <trkpt lon="9.4943399429" lat="50.2784156799">
          <ele>444</ele>
          <time>2024-06-04T15:20:24Z</time>
      </trkpt>
      <trkpt lon="9.4940986633" lat="50.2783088684">
          <ele>441</ele>
          <time>2024-06-04T15:20:39Z</time>
      </trkpt>
      <trkpt lon="9.4939880371" lat="50.2781410217">
          <ele>432</ele>
          <time>2024-06-04T15:21:00Z</time>
      </trkpt>
      <trkpt lon="9.4938812256" lat="50.277961731">
          <ele>430</ele>
          <time>2024-06-04T15:21:15Z</time>
      </trkpt>
      <trkpt lon="9.4938631058" lat="50.2777671814">
          <ele>426</ele>
          <time>2024-06-04T15:21:38Z</time>
      </trkpt>
      <trkpt lon="9.4937582016" lat="50.27759552">
          <ele>419</ele>
          <time>2024-06-04T15:21:58Z</time>
      </trkpt>
      <trkpt lon="9.4935884476" lat="50.2774429321">
          <ele>413</ele>
          <time>2024-06-04T15:22:12Z</time>
      </trkpt>
      <trkpt lon="9.4934587479" lat="50.2772712708">
          <ele>412</ele>
          <time>2024-06-04T15:22:28Z</time>
      </trkpt>
      <trkpt lon="9.4934082031" lat="50.2770843506">
          <ele>413</ele>
          <time>2024-06-04T15:22:47Z</time>
      </trkpt>
      <trkpt lon="9.4932804108" lat="50.2769126892">
          <ele>412</ele>
          <time>2024-06-04T15:23:07Z</time>
      </trkpt>
      <trkpt lon="9.4931783676" lat="50.2767333984">
          <ele>410</ele>
          <time>2024-06-04T15:23:26Z</time>
      </trkpt>
      <trkpt lon="9.4931335449" lat="50.2765464783">
          <ele>409</ele>
          <time>2024-06-04T15:23:48Z</time>
      </trkpt>
      <trkpt lon="9.493142128" lat="50.2763557434">
          <ele>405</ele>
          <time>2024-06-04T15:24:07Z</time>
      </trkpt>
      <trkpt lon="9.4930896759" lat="50.2761650085">
          <ele>402</ele>
          <time>2024-06-04T15:24:21Z</time>
      </trkpt>
      <trkpt lon="9.4930429459" lat="50.2759780884">
          <ele>399</ele>
          <time>2024-06-04T15:24:39Z</time>
      </trkpt>
      <trkpt lon="9.4927768707" lat="50.2758865356">
          <ele>398</ele>
          <time>2024-06-04T15:25:06Z</time>
      </trkpt>
      <trkpt lon="9.4924945831" lat="50.2758674622">
          <ele>404</ele>
          <time>2024-06-04T15:26:46Z</time>
      </trkpt>
      <trkpt lon="9.4921798706" lat="50.2758598328">
          <ele>404</ele>
          <time>2024-06-04T15:27:09Z</time>
      </trkpt>
      <trkpt lon="9.4918718338" lat="50.2758483887">
          <ele>403</ele>
          <time>2024-06-04T15:28:29Z</time>
      </trkpt>
      <trkpt lon="9.4915714264" lat="50.2758598328">
          <ele>401</ele>
          <time>2024-06-04T15:29:00Z</time>
      </trkpt>
      <trkpt lon="9.4914331436" lat="50.2756843567">
          <ele>400</ele>
          <time>2024-06-04T15:29:33Z</time>
      </trkpt>
      <trkpt lon="9.4915151596" lat="50.2754898071">
          <ele>400</ele>
          <time>2024-06-04T15:29:51Z</time>
      </trkpt>
      <trkpt lon="9.4912166595" lat="50.2754669189">
          <ele>407</ele>
          <time>2024-06-04T15:30:08Z</time>
      </trkpt>
      <trkpt lon="9.4909667969" lat="50.2755622864">
          <ele>411</ele>
          <time>2024-06-04T15:30:28Z</time>
      </trkpt>
      <trkpt lon="9.4906921387" lat="50.2756500244">
          <ele>407</ele>
          <time>2024-06-04T15:30:43Z</time>
      </trkpt>
      <trkpt lon="9.490436554" lat="50.2757492065">
          <ele>406</ele>
          <time>2024-06-04T15:31:03Z</time>
      </trkpt>
      <trkpt lon="9.4902029037" lat="50.2758750916">
          <ele>410</ele>
          <time>2024-06-04T15:31:22Z</time>
      </trkpt>
      <trkpt lon="9.4899587631" lat="50.2759857178">
          <ele>411</ele>
          <time>2024-06-04T15:31:38Z</time>
      </trkpt>
      <trkpt lon="9.4896965027" lat="50.2760925293">
          <ele>412</ele>
          <time>2024-06-04T15:31:56Z</time>
      </trkpt>
      <trkpt lon="9.4894113541" lat="50.2761611938">
          <ele>412</ele>
          <time>2024-06-04T15:32:11Z</time>
      </trkpt>
      <trkpt lon="9.4891138077" lat="50.276134491">
          <ele>411</ele>
          <time>2024-06-04T15:32:27Z</time>
      </trkpt>
      <trkpt lon="9.4888114929" lat="50.2761421204">
          <ele>411</ele>
          <time>2024-06-04T15:32:44Z</time>
      </trkpt>
      <trkpt lon="9.4885282516" lat="50.2760810852">
          <ele>408</ele>
          <time>2024-06-04T15:33:01Z</time>
      </trkpt>
      <trkpt lon="9.4882202148" lat="50.276058197">
          <ele>406</ele>
          <time>2024-06-04T15:33:17Z</time>
      </trkpt>
      <trkpt lon="9.4879465103" lat="50.2759819031">
          <ele>409</ele>
          <time>2024-06-04T15:33:31Z</time>
      </trkpt>
      <trkpt lon="9.4876699448" lat="50.275932312">
          <ele>414</ele>
          <time>2024-06-04T15:33:45Z</time>
      </trkpt>
      <trkpt lon="9.4873867035" lat="50.2758750916">
          <ele>421</ele>
          <time>2024-06-04T15:34:02Z</time>
      </trkpt>
      <trkpt lon="9.487118721" lat="50.2757987976">
          <ele>424</ele>
          <time>2024-06-04T15:34:18Z</time>
      </trkpt>
      <trkpt lon="9.4869403839" lat="50.2759590149">
          <ele>426</ele>
          <time>2024-06-04T15:34:47Z</time>
      </trkpt>
      <trkpt lon="9.4868297577" lat="50.276134491">
          <ele>425</ele>
          <time>2024-06-04T15:35:09Z</time>
      </trkpt>
      <trkpt lon="9.4866685867" lat="50.2762985229">
          <ele>423</ele>
          <time>2024-06-04T15:35:23Z</time>
      </trkpt>
      <trkpt lon="9.4865465164" lat="50.2764778137">
          <ele>425</ele>
          <time>2024-06-04T15:35:48Z</time>
      </trkpt>
      <trkpt lon="9.4864835739" lat="50.2766647339">
          <ele>425</ele>
          <time>2024-06-04T15:36:06Z</time>
      </trkpt>
      <trkpt lon="9.4863948822" lat="50.2768516541">
          <ele>424</ele>
          <time>2024-06-04T15:36:25Z</time>
      </trkpt>
      <trkpt lon="9.4862346649" lat="50.2770233154">
          <ele>423</ele>
          <time>2024-06-04T15:36:48Z</time>
      </trkpt>
      <trkpt lon="9.4861478806" lat="50.2772102356">
          <ele>423</ele>
          <time>2024-06-04T15:37:21Z</time>
      </trkpt>
      <trkpt lon="9.4859399796" lat="50.2773513794">
          <ele>421</ele>
          <time>2024-06-04T15:37:43Z</time>
      </trkpt>
      <trkpt lon="9.4857349396" lat="50.2774925232">
          <ele>424</ele>
          <time>2024-06-04T15:38:11Z</time>
      </trkpt>
      <trkpt lon="9.4856281281" lat="50.2776603699">
          <ele>430</ele>
          <time>2024-06-04T15:38:39Z</time>
      </trkpt>
      <trkpt lon="9.4854545593" lat="50.2775039673">
          <ele>434</ele>
          <time>2024-06-04T15:38:58Z</time>
      </trkpt>
      <trkpt lon="9.4851970673" lat="50.2773933411">
          <ele>434</ele>
          <time>2024-06-04T15:39:15Z</time>
      </trkpt>
      <trkpt lon="9.4849452972" lat="50.2772941589">
          <ele>433</ele>
          <time>2024-06-04T15:39:30Z</time>
      </trkpt>
      <trkpt lon="9.4846601486" lat="50.2772216797">
          <ele>431</ele>
          <time>2024-06-04T15:39:46Z</time>
      </trkpt>
      <trkpt lon="9.484375" lat="50.277141571">
          <ele>433</ele>
          <time>2024-06-04T15:40:02Z</time>
      </trkpt>
      <trkpt lon="9.4840869904" lat="50.2771072388">
          <ele>436</ele>
          <time>2024-06-04T15:40:17Z</time>
      </trkpt>
      <trkpt lon="9.4837970734" lat="50.277053833">
          <ele>438</ele>
          <time>2024-06-04T15:40:32Z</time>
      </trkpt>
      <trkpt lon="9.483505249" lat="50.2770423889">
          <ele>445</ele>
          <time>2024-06-04T15:40:51Z</time>
      </trkpt>
      <trkpt lon="9.4832181931" lat="50.2769927979">
          <ele>449</ele>
          <time>2024-06-04T15:41:09Z</time>
      </trkpt>
      <trkpt lon="9.4829120636" lat="50.2769813538">
          <ele>450</ele>
          <time>2024-06-04T15:41:25Z</time>
      </trkpt>
      <trkpt lon="9.4826164246" lat="50.2769775391">
          <ele>449</ele>
          <time>2024-06-04T15:41:40Z</time>
      </trkpt>
      <trkpt lon="9.4823169708" lat="50.2769851685">
          <ele>447</ele>
          <time>2024-06-04T15:41:57Z</time>
      </trkpt>
      <trkpt lon="9.4820165634" lat="50.2769966125">
          <ele>446</ele>
          <time>2024-06-04T15:42:13Z</time>
      </trkpt>
      <trkpt lon="9.4817047119" lat="50.2770385742">
          <ele>447</ele>
          <time>2024-06-04T15:42:30Z</time>
      </trkpt>
      <trkpt lon="9.4814062119" lat="50.2770881653">
          <ele>447</ele>
          <time>2024-06-04T15:42:46Z</time>
      </trkpt>
      <trkpt lon="9.4811220169" lat="50.2771339417">
          <ele>450</ele>
          <time>2024-06-04T15:43:05Z</time>
      </trkpt>
      <trkpt lon="9.4809036255" lat="50.2772750854">
          <ele>452</ele>
          <time>2024-06-04T15:43:23Z</time>
      </trkpt>
      <trkpt lon="9.4806404114" lat="50.2773704529">
          <ele>454</ele>
          <time>2024-06-04T15:43:42Z</time>
      </trkpt>
      <trkpt lon="9.4804134369" lat="50.2774925232">
          <ele>456</ele>
          <time>2024-06-04T15:43:58Z</time>
      </trkpt>
      <trkpt lon="9.4802150726" lat="50.2776260376">
          <ele>461</ele>
          <time>2024-06-04T15:44:17Z</time>
      </trkpt>
      <trkpt lon="9.4799470901" lat="50.277721405">
          <ele>463</ele>
          <time>2024-06-04T15:44:35Z</time>
      </trkpt>
      <trkpt lon="9.4796934128" lat="50.2778244019">
          <ele>462</ele>
          <time>2024-06-04T15:44:53Z</time>
      </trkpt>
      <trkpt lon="9.4794464111" lat="50.2779312134">
          <ele>465</ele>
          <time>2024-06-04T15:45:14Z</time>
      </trkpt>
      <trkpt lon="9.4791870117" lat="50.2780227661">
          <ele>466</ele>
          <time>2024-06-04T15:45:31Z</time>
      </trkpt>
      <trkpt lon="9.4789333344" lat="50.2781333923">
          <ele>464</ele>
          <time>2024-06-04T15:45:51Z</time>
      </trkpt>
      <trkpt lon="9.4786634445" lat="50.278213501">
          <ele>467</ele>
          <time>2024-06-04T15:46:09Z</time>
      </trkpt>
      <trkpt lon="9.4784164429" lat="50.2783126831">
          <ele>472</ele>
          <time>2024-06-04T15:46:25Z</time>
      </trkpt>
      <trkpt lon="9.4781751633" lat="50.2784233093">
          <ele>473</ele>
          <time>2024-06-04T15:46:43Z</time>
      </trkpt>
      <trkpt lon="9.4782466888" lat="50.2785987854">
          <ele>465</ele>
          <time>2024-06-04T15:47:15Z</time>
      </trkpt>
      <trkpt lon="9.4784517288" lat="50.2787399292">
          <ele>461</ele>
          <time>2024-06-04T15:47:34Z</time>
      </trkpt>
      <trkpt lon="9.4786682129" lat="50.2788734436">
          <ele>458</ele>
          <time>2024-06-04T15:48:45Z</time>
      </trkpt>
      <trkpt lon="9.4788532257" lat="50.2790260315">
          <ele>458</ele>
          <time>2024-06-04T15:49:01Z</time>
      </trkpt>
      <trkpt lon="9.4790935516" lat="50.2791481018">
          <ele>462</ele>
          <time>2024-06-04T15:49:22Z</time>
      </trkpt>
      <trkpt lon="9.4792671204" lat="50.2793121338">
          <ele>464</ele>
          <time>2024-06-04T15:49:38Z</time>
      </trkpt>
      <trkpt lon="9.4794301987" lat="50.2794723511">
          <ele>463</ele>
          <time>2024-06-04T15:49:52Z</time>
      </trkpt>
      <trkpt lon="9.4796619415" lat="50.2795982361">
          <ele>463</ele>
          <time>2024-06-04T15:50:11Z</time>
      </trkpt>
      <trkpt lon="9.4798402786" lat="50.2797622681">
          <ele>463</ele>
          <time>2024-06-04T15:50:26Z</time>
      </trkpt>
      <trkpt lon="9.4800548553" lat="50.2798957825">
          <ele>464</ele>
          <time>2024-06-04T15:50:43Z</time>
      </trkpt>
      <trkpt lon="9.4802017212" lat="50.2800598145">
          <ele>464</ele>
          <time>2024-06-04T15:50:59Z</time>
      </trkpt>
      <trkpt lon="9.4803285599" lat="50.2802467346">
          <ele>464</ele>
          <time>2024-06-04T15:51:18Z</time>
      </trkpt>
      <trkpt lon="9.480509758" lat="50.2804069519">
          <ele>462</ele>
          <time>2024-06-04T15:51:33Z</time>
      </trkpt>
      <trkpt lon="9.4807195663" lat="50.2805404663">
          <ele>459</ele>
          <time>2024-06-04T15:51:51Z</time>
      </trkpt>
      <trkpt lon="9.4809465408" lat="50.2806625366">
          <ele>457</ele>
          <time>2024-06-04T15:52:07Z</time>
      </trkpt>
      <trkpt lon="9.4810419083" lat="50.2808456421">
          <ele>457</ele>
          <time>2024-06-04T15:52:22Z</time>
      </trkpt>
      <trkpt lon="9.4811487198" lat="50.2810211182">
          <ele>462</ele>
          <time>2024-06-04T15:52:37Z</time>
      </trkpt>
      <trkpt lon="9.4813699722" lat="50.2811584473">
          <ele>467</ele>
          <time>2024-06-04T15:52:57Z</time>
      </trkpt>
      <trkpt lon="9.4815950394" lat="50.2812843323">
          <ele>462</ele>
          <time>2024-06-04T15:53:16Z</time>
      </trkpt>
      <trkpt lon="9.4817848206" lat="50.2814331055">
          <ele>458</ele>
          <time>2024-06-04T15:53:38Z</time>
      </trkpt>
      <trkpt lon="9.4819736481" lat="50.2815818787">
          <ele>460</ele>
          <time>2024-06-04T15:53:51Z</time>
      </trkpt>
      <trkpt lon="9.4821653366" lat="50.2817420959">
          <ele>461</ele>
          <time>2024-06-04T15:54:11Z</time>
      </trkpt>
      <trkpt lon="9.4823951721" lat="50.2818603516">
          <ele>459</ele>
          <time>2024-06-04T15:54:40Z</time>
      </trkpt>
      <trkpt lon="9.482591629" lat="50.2820053101">
          <ele>460</ele>
          <time>2024-06-04T15:54:57Z</time>
      </trkpt>
      <trkpt lon="9.4828147888" lat="50.2821311951">
          <ele>459</ele>
          <time>2024-06-04T15:55:17Z</time>
      </trkpt>
      <trkpt lon="9.4827318192" lat="50.2823181152">
          <ele>459</ele>
          <time>2024-06-04T15:55:34Z</time>
      </trkpt>
      <trkpt lon="9.4828567505" lat="50.2824897766">
          <ele>458</ele>
          <time>2024-06-04T15:55:48Z</time>
      </trkpt>
      <trkpt lon="9.4829463959" lat="50.2826766968">
          <ele>456</ele>
          <time>2024-06-04T15:56:11Z</time>
      </trkpt>
      <trkpt lon="9.4829845428" lat="50.2828674316">
          <ele>455</ele>
          <time>2024-06-04T15:56:27Z</time>
      </trkpt>
      <trkpt lon="9.4830446243" lat="50.2830543518">
          <ele>452</ele>
          <time>2024-06-04T15:56:46Z</time>
      </trkpt>
      <trkpt lon="9.4831552505" lat="50.283241272">
          <ele>449</ele>
          <time>2024-06-04T15:57:05Z</time>
      </trkpt>
      <trkpt lon="9.4832983017" lat="50.2834091187">
          <ele>448</ele>
          <time>2024-06-04T15:57:21Z</time>
      </trkpt>
      <trkpt lon="9.4834165573" lat="50.2835845947">
          <ele>446</ele>
          <time>2024-06-04T15:57:35Z</time>
      </trkpt>
      <trkpt lon="9.483505249" lat="50.2837600708">
          <ele>441</ele>
          <time>2024-06-04T15:58:02Z</time>
      </trkpt>
      <trkpt lon="9.4832620621" lat="50.2838783264">
          <ele>439</ele>
          <time>2024-06-04T15:58:15Z</time>
      </trkpt>
      <trkpt lon="9.4829912186" lat="50.2839546204">
          <ele>440</ele>
          <time>2024-06-04T15:58:49Z</time>
      </trkpt>
      <trkpt lon="9.4826803207" lat="50.2839317322">
          <ele>440</ele>
          <time>2024-06-04T15:59:02Z</time>
      </trkpt>
      <trkpt lon="9.482383728" lat="50.2839698792">
          <ele>437</ele>
          <time>2024-06-04T15:59:18Z</time>
      </trkpt>
      <trkpt lon="9.4820899963" lat="50.2840385437">
          <ele>437</ele>
          <time>2024-06-04T15:59:33Z</time>
      </trkpt>
      <trkpt lon="9.4818029404" lat="50.2840843201">
          <ele>438</ele>
          <time>2024-06-04T15:59:50Z</time>
      </trkpt>
      <trkpt lon="9.4815187454" lat="50.2841339111">
          <ele>435</ele>
          <time>2024-06-04T16:00:06Z</time>
      </trkpt>
      <trkpt lon="9.4812135696" lat="50.2841262817">
          <ele>431</ele>
          <time>2024-06-04T16:00:23Z</time>
      </trkpt>
      <trkpt lon="9.4809379578" lat="50.2841949463">
          <ele>431</ele>
          <time>2024-06-04T16:00:36Z</time>
      </trkpt>
      <trkpt lon="9.4806604385" lat="50.2842903137">
          <ele>433</ele>
          <time>2024-06-04T16:00:51Z</time>
      </trkpt>
      <trkpt lon="9.4804649353" lat="50.2844390869">
          <ele>433</ele>
          <time>2024-06-04T16:01:05Z</time>
      </trkpt>
      <trkpt lon="9.4802350998" lat="50.2845535278">
          <ele>428</ele>
          <time>2024-06-04T16:01:22Z</time>
      </trkpt>
      <trkpt lon="9.4799861908" lat="50.2846717834">
          <ele>424</ele>
          <time>2024-06-04T16:01:38Z</time>
      </trkpt>
      <trkpt lon="9.4797353745" lat="50.2847862244">
          <ele>422</ele>
          <time>2024-06-04T16:01:55Z</time>
      </trkpt>
      <trkpt lon="9.4794778824" lat="50.2848815918">
          <ele>421</ele>
          <time>2024-06-04T16:02:09Z</time>
      </trkpt>
      <trkpt lon="9.479265213" lat="50.2850265503">
          <ele>420</ele>
          <time>2024-06-04T16:02:26Z</time>
      </trkpt>
      <trkpt lon="9.479060173" lat="50.2851638794">
          <ele>420</ele>
          <time>2024-06-04T16:02:41Z</time>
      </trkpt>
      <trkpt lon="9.4788799286" lat="50.2853164673">
          <ele>419</ele>
          <time>2024-06-04T16:02:57Z</time>
      </trkpt>
      <trkpt lon="9.4786787033" lat="50.2854576111">
          <ele>418</ele>
          <time>2024-06-04T16:03:15Z</time>
      </trkpt>
      <trkpt lon="9.4784049988" lat="50.2855300903">
          <ele>419</ele>
          <time>2024-06-04T16:03:30Z</time>
      </trkpt>
      <trkpt lon="9.4781169891" lat="50.2855873108">
          <ele>420</ele>
          <time>2024-06-04T16:03:46Z</time>
      </trkpt>
      <trkpt lon="9.4778518677" lat="50.2856941223">
          <ele>419</ele>
          <time>2024-06-04T16:04:00Z</time>
      </trkpt>
      <trkpt lon="9.4775762558" lat="50.2857704163">
          <ele>418</ele>
          <time>2024-06-04T16:04:16Z</time>
      </trkpt>
      <trkpt lon="9.4776163101" lat="50.2859649658">
          <ele>413</ele>
          <time>2024-06-04T16:04:33Z</time>
      </trkpt>
      <trkpt lon="9.4775800705" lat="50.2861557007">
          <ele>410</ele>
          <time>2024-06-04T16:04:48Z</time>
      </trkpt>
      <trkpt lon="9.4775953293" lat="50.2863502502">
          <ele>409</ele>
          <time>2024-06-04T16:05:04Z</time>
      </trkpt>
      <trkpt lon="9.477555275" lat="50.2865447998">
          <ele>409</ele>
          <time>2024-06-04T16:05:20Z</time>
      </trkpt>
      <trkpt lon="9.4775180817" lat="50.2867393494">
          <ele>406</ele>
          <time>2024-06-04T16:05:38Z</time>
      </trkpt>
      <trkpt lon="9.4774751663" lat="50.2869338989">
          <ele>404</ele>
          <time>2024-06-04T16:05:53Z</time>
      </trkpt>
      <trkpt lon="9.4774570465" lat="50.2871284485">
          <ele>401</ele>
          <time>2024-06-04T16:06:08Z</time>
      </trkpt>
      <trkpt lon="9.4774312973" lat="50.2873268127">
          <ele>399</ele>
          <time>2024-06-04T16:06:26Z</time>
      </trkpt>
      <trkpt lon="9.4774065018" lat="50.287525177">
          <ele>396</ele>
          <time>2024-06-04T16:06:44Z</time>
      </trkpt>
      <trkpt lon="9.4773330688" lat="50.2877120972">
          <ele>394</ele>
          <time>2024-06-04T16:06:56Z</time>
      </trkpt>
      <trkpt lon="9.4773015976" lat="50.2879066467">
          <ele>395</ele>
          <time>2024-06-04T16:07:12Z</time>
      </trkpt>
      <trkpt lon="9.4772748947" lat="50.2881011963">
          <ele>396</ele>
          <time>2024-06-04T16:07:27Z</time>
      </trkpt>
      <trkpt lon="9.4772253036" lat="50.2882881165">
          <ele>395</ele>
          <time>2024-06-04T16:07:43Z</time>
      </trkpt>
      <trkpt lon="9.477191925" lat="50.2884788513">
          <ele>392</ele>
          <time>2024-06-04T16:08:01Z</time>
      </trkpt>
      <trkpt lon="9.4771385193" lat="50.2886657715">
          <ele>391</ele>
          <time>2024-06-04T16:08:18Z</time>
      </trkpt>
      <trkpt lon="9.4771251678" lat="50.2888641357">
          <ele>390</ele>
          <time>2024-06-04T16:08:32Z</time>
      </trkpt>
      <trkpt lon="9.4770812988" lat="50.2890586853">
          <ele>387</ele>
          <time>2024-06-04T16:08:48Z</time>
      </trkpt>
      <trkpt lon="9.4770345688" lat="50.2892608643">
          <ele>383</ele>
          <time>2024-06-04T16:09:06Z</time>
      </trkpt>
      <trkpt lon="9.4769897461" lat="50.2894477844">
          <ele>380</ele>
          <time>2024-06-04T16:09:21Z</time>
      </trkpt>
      <trkpt lon="9.4769916534" lat="50.289642334">
          <ele>377</ele>
          <time>2024-06-04T16:09:39Z</time>
      </trkpt>
      <trkpt lon="9.4769449234" lat="50.2898330688">
          <ele>373</ele>
          <time>2024-06-04T16:09:56Z</time>
      </trkpt>
      <trkpt lon="9.4772148132" lat="50.2899131775">
          <ele>368</ele>
          <time>2024-06-04T16:10:23Z</time>
      </trkpt>
      <trkpt lon="9.4775104523" lat="50.2899208069">
          <ele>367</ele>
          <time>2024-06-04T16:10:37Z</time>
      </trkpt>
      <trkpt lon="9.4778118134" lat="50.2898750305">
          <ele>369</ele>
          <time>2024-06-04T16:10:53Z</time>
      </trkpt>
      <trkpt lon="9.4780750275" lat="50.2897911072">
          <ele>372</ele>
          <time>2024-06-04T16:11:07Z</time>
      </trkpt>
      <trkpt lon="9.4783430099" lat="50.2897071838">
          <ele>374</ele>
          <time>2024-06-04T16:11:22Z</time>
      </trkpt>
      <trkpt lon="9.4786167145" lat="50.2896347046">
          <ele>374</ele>
          <time>2024-06-04T16:11:38Z</time>
      </trkpt>
      <trkpt lon="9.4789037704" lat="50.2895736694">
          <ele>375</ele>
          <time>2024-06-04T16:11:55Z</time>
      </trkpt>
      <trkpt lon="9.4791383743" lat="50.2894439697">
          <ele>376</ele>
          <time>2024-06-04T16:12:11Z</time>
      </trkpt>
      <trkpt lon="9.4794149399" lat="50.2893714905">
          <ele>376</ele>
          <time>2024-06-04T16:12:26Z</time>
      </trkpt>
      <trkpt lon="9.4796895981" lat="50.2892990112">
          <ele>376</ele>
          <time>2024-06-04T16:12:42Z</time>
      </trkpt>
      <trkpt lon="9.4799718857" lat="50.2892074585">
          <ele>376</ele>
          <time>2024-06-04T16:12:58Z</time>
      </trkpt>
      <trkpt lon="9.4802751541" lat="50.2891540527">
          <ele>376</ele>
          <time>2024-06-04T16:13:14Z</time>
      </trkpt>
      <trkpt lon="9.4805698395" lat="50.2891921997">
          <ele>375</ele>
          <time>2024-06-04T16:13:32Z</time>
      </trkpt>
      <trkpt lon="9.4808330536" lat="50.2892837524">
          <ele>373</ele>
          <time>2024-06-04T16:13:48Z</time>
      </trkpt>
      <trkpt lon="9.4810695648" lat="50.2894172668">
          <ele>372</ele>
          <time>2024-06-04T16:14:05Z</time>
      </trkpt>
      <trkpt lon="9.481388092" lat="50.289440155">
          <ele>370</ele>
          <time>2024-06-04T16:14:21Z</time>
      </trkpt>
      <trkpt lon="9.4816713333" lat="50.2893600464">
          <ele>371</ele>
          <time>2024-06-04T16:14:39Z</time>
      </trkpt>
      <trkpt lon="9.4819469452" lat="50.2892799377">
          <ele>376</ele>
          <time>2024-06-04T16:14:58Z</time>
      </trkpt>
      <trkpt lon="9.4822416306" lat="50.2892608643">
          <ele>379</ele>
          <time>2024-06-04T16:15:13Z</time>
      </trkpt>
      <trkpt lon="9.482544899" lat="50.2893104553">
          <ele>379</ele>
          <time>2024-06-04T16:15:29Z</time>
      </trkpt>
      <trkpt lon="9.4828329086" lat="50.2892417908">
          <ele>378</ele>
          <time>2024-06-04T16:15:45Z</time>
      </trkpt>
      <trkpt lon="9.4831285477" lat="50.2891998291">
          <ele>375</ele>
          <time>2024-06-04T16:16:03Z</time>
      </trkpt>
      <trkpt lon="9.483420372" lat="50.2892341614">
          <ele>374</ele>
          <time>2024-06-04T16:16:18Z</time>
      </trkpt>
      <trkpt lon="9.4835748672" lat="50.2894096375">
          <ele>377</ele>
          <time>2024-06-04T16:16:37Z</time>
      </trkpt>
      <trkpt lon="9.4837417603" lat="50.2895698547">
          <ele>378</ele>
          <time>2024-06-04T16:16:55Z</time>
      </trkpt>
      <trkpt lon="9.4839162827" lat="50.2897224426">
          <ele>377</ele>
          <time>2024-06-04T16:17:10Z</time>
      </trkpt>
      <trkpt lon="9.484003067" lat="50.2899093628">
          <ele>377</ele>
          <time>2024-06-04T16:17:25Z</time>
      </trkpt>
      <trkpt lon="9.4841403961" lat="50.2900810242">
          <ele>378</ele>
          <time>2024-06-04T16:17:41Z</time>
      </trkpt>
      <trkpt lon="9.484290123" lat="50.2902565002">
          <ele>378</ele>
          <time>2024-06-04T16:17:56Z</time>
      </trkpt>
      <trkpt lon="9.4844684601" lat="50.2904281616">
          <ele>376</ele>
          <time>2024-06-04T16:18:11Z</time>
      </trkpt>
      <trkpt lon="9.4846801758" lat="50.2905693054">
          <ele>375</ele>
          <time>2024-06-04T16:18:28Z</time>
      </trkpt>
      <trkpt lon="9.4848947525" lat="50.2907066345">
          <ele>375</ele>
          <time>2024-06-04T16:18:45Z</time>
      </trkpt>
      <trkpt lon="9.4851264954" lat="50.2908401489">
          <ele>376</ele>
          <time>2024-06-04T16:19:03Z</time>
      </trkpt>
      <trkpt lon="9.4853219986" lat="50.2910079956">
          <ele>377</ele>
          <time>2024-06-04T16:19:21Z</time>
      </trkpt>
      <trkpt lon="9.4854831696" lat="50.2911720276">
          <ele>377</ele>
          <time>2024-06-04T16:19:36Z</time>
      </trkpt>
      <trkpt lon="9.4854288101" lat="50.2913665771">
          <ele>376</ele>
          <time>2024-06-04T16:19:54Z</time>
      </trkpt>
      <trkpt lon="9.4853448868" lat="50.2915534973">
          <ele>373</ele>
          <time>2024-06-04T16:20:09Z</time>
      </trkpt>
      <trkpt lon="9.48528862" lat="50.2917404175">
          <ele>373</ele>
          <time>2024-06-04T16:20:24Z</time>
      </trkpt>
      <trkpt lon="9.4852933884" lat="50.291934967">
          <ele>375</ele>
          <time>2024-06-04T16:20:43Z</time>
      </trkpt>
      <trkpt lon="9.4853153229" lat="50.292137146">
          <ele>374</ele>
          <time>2024-06-04T16:20:59Z</time>
      </trkpt>
      <trkpt lon="9.4853315353" lat="50.2923240662">
          <ele>371</ele>
          <time>2024-06-04T16:21:14Z</time>
      </trkpt>
      <trkpt lon="9.485376358" lat="50.292514801">
          <ele>367</ele>
          <time>2024-06-04T16:21:31Z</time>
      </trkpt>
      <trkpt lon="9.4854001999" lat="50.2927055359">
          <ele>365</ele>
          <time>2024-06-04T16:21:46Z</time>
      </trkpt>
      <trkpt lon="9.4854803085" lat="50.2928886414">
          <ele>367</ele>
          <time>2024-06-04T16:22:20Z</time>
      </trkpt>
      <trkpt lon="9.485291481" lat="50.2930450439">
          <ele>368</ele>
          <time>2024-06-04T16:22:34Z</time>
      </trkpt>
      <trkpt lon="9.485124588" lat="50.2932052612">
          <ele>370</ele>
          <time>2024-06-04T16:22:53Z</time>
      </trkpt>
      <trkpt lon="9.4849395752" lat="50.2933692932">
          <ele>372</ele>
          <time>2024-06-04T16:23:11Z</time>
      </trkpt>
      <trkpt lon="9.484749794" lat="50.2935218811">
          <ele>371</ele>
          <time>2024-06-04T16:23:28Z</time>
      </trkpt>
      <trkpt lon="9.4846019745" lat="50.2936973572">
          <ele>371</ele>
          <time>2024-06-04T16:24:08Z</time>
      </trkpt>
   </trkseg>
</trk>
</gpx>
